sensor_id;sensor_type;location;lat;lon;timestamp;temperature;humidity
27823;DHT22;29019;47.630;8.262;2023-04-02T00:01:36;20.10;36.70
27823;DHT22;29019;47.630;8.262;2023-04-02T00:09:49;20.10;36.80
27823;DHT22;29019;47.630;8.262;2023-04-02T00:13:49;20.10;36.70
27823;DHT22;29019;47.630;8.262;2023-04-02T00:17:51;20.10;36.70
27823;DHT22;29019;47.630;8.262;2023-04-02T00:21:51;20.00;36.70
27823;DHT22;29019;47.630;8.262;2023-04-02T00:25:52;20.00;36.70
27823;DHT22;29019;47.630;8.262;2023-04-02T00:29:53;20.00;36.70
27823;DHT22;29019;47.630;8.262;2023-04-02T00:33:54;20.00;36.70
27823;DHT22;29019;47.630;8.262;2023-04-02T00:37:55;20.00;36.80
27823;DHT22;29019;47.630;8.262;2023-04-02T00:41:56;20.00;36.80
27823;DHT22;29019;47.630;8.262;2023-04-02T00:46:10;19.90;36.70
27823;DHT22;29019;47.630;8.262;2023-04-02T00:54:17;20.00;36.80
27823;DHT22;29019;47.630;8.262;2023-04-02T00:58:33;20.00;36.80
27823;DHT22;29019;47.630;8.262;2023-04-02T01:02:33;20.00;36.80
27823;DHT22;29019;47.630;8.262;2023-04-02T01:06:37;19.90;36.70
27823;DHT22;29019;47.630;8.262;2023-04-02T01:10:44;19.90;36.80
27823;DHT22;29019;47.630;8.262;2023-04-02T01:23:36;19.90;36.80
27823;DHT22;29019;47.630;8.262;2023-04-02T01:27:21;19.90;36.80
27823;DHT22;29019;47.630;8.262;2023-04-02T01:31:24;19.80;36.80
27823;DHT22;29019;47.630;8.262;2023-04-02T01:35:26;19.90;36.90
27823;DHT22;29019;47.630;8.262;2023-04-02T01:43:50;19.90;36.80
27823;DHT22;29019;47.630;8.262;2023-04-02T01:47:53;19.80;36.80
27823;DHT22;29019;47.630;8.262;2023-04-02T01:51:54;19.80;36.80
27823;DHT22;29019;47.630;8.262;2023-04-02T01:55:57;19.80;36.80
27823;DHT22;29019;47.630;8.262;2023-04-02T01:59:58;19.80;36.80
27823;DHT22;29019;47.630;8.262;2023-04-02T02:04:00;19.80;36.80
27823;DHT22;29019;47.630;8.262;2023-04-02T02:08:01;19.80;36.80
27823;DHT22;29019;47.630;8.262;2023-04-02T02:12:02;19.70;36.80
27823;DHT22;29019;47.630;8.262;2023-04-02T02:16:03;19.70;36.80
27823;DHT22;29019;47.630;8.262;2023-04-02T02:20:04;19.80;36.80
27823;DHT22;29019;47.630;8.262;2023-04-02T02:24:16;19.70;36.80
27823;DHT22;29019;47.630;8.262;2023-04-02T02:28:25;19.70;36.80
27823;DHT22;29019;47.630;8.262;2023-04-02T02:32:27;19.70;36.80
27823;DHT22;29019;47.630;8.262;2023-04-02T02:40:51;19.70;36.80
27823;DHT22;29019;47.630;8.262;2023-04-02T02:44:53;19.70;36.80
27823;DHT22;29019;47.630;8.262;2023-04-02T02:48:54;19.70;36.90
27823;DHT22;29019;47.630;8.262;2023-04-02T02:52:57;19.60;36.80
27823;DHT22;29019;47.630;8.262;2023-04-02T02:57:00;19.70;36.90
27823;DHT22;29019;47.630;8.262;2023-04-02T03:01:01;19.60;36.80
27823;DHT22;29019;47.630;8.262;2023-04-02T03:05:02;19.60;36.90
27823;DHT22;29019;47.630;8.262;2023-04-02T03:13:27;19.60;36.80
27823;DHT22;29019;47.630;8.262;2023-04-02T03:17:30;19.60;36.90
27823;DHT22;29019;47.630;8.262;2023-04-02T03:21:40;19.60;36.80
27823;DHT22;29019;47.630;8.262;2023-04-02T03:25:43;19.60;36.80
27823;DHT22;29019;47.630;8.262;2023-04-02T03:34:00;19.60;36.80
27823;DHT22;29019;47.630;8.262;2023-04-02T03:38:04;19.60;36.80
27823;DHT22;29019;47.630;8.262;2023-04-02T03:42:15;19.60;36.80
27823;DHT22;29019;47.630;8.262;2023-04-02T03:46:30;19.60;36.80
27823;DHT22;29019;47.630;8.262;2023-04-02T03:50:37;19.60;36.80
27823;DHT22;29019;47.630;8.262;2023-04-02T03:54:40;19.60;36.80
27823;DHT22;29019;47.630;8.262;2023-04-02T03:58:45;19.60;36.80
27823;DHT22;29019;47.630;8.262;2023-04-02T04:02:57;19.60;36.80
27823;DHT22;29019;47.630;8.262;2023-04-02T04:07:01;19.60;36.80
27823;DHT22;29019;47.630;8.262;2023-04-02T04:11:02;19.70;36.90
27823;DHT22;29019;47.630;8.262;2023-04-02T04:15:18;19.70;36.70
27823;DHT22;29019;47.630;8.262;2023-04-02T04:20:10;19.80;36.70
27823;DHT22;29019;47.630;8.262;2023-04-02T04:23:41;19.90;36.60
27823;DHT22;29019;47.630;8.262;2023-04-02T04:32:16;20.10;36.50
27823;DHT22;29019;47.630;8.262;2023-04-02T04:36:23;20.20;36.50
27823;DHT22;29019;47.630;8.262;2023-04-02T04:40:29;20.20;36.40
27823;DHT22;29019;47.630;8.262;2023-04-02T04:44:49;20.30;36.40
27823;DHT22;29019;47.630;8.262;2023-04-02T04:53:03;20.40;36.30
27823;DHT22;29019;47.630;8.262;2023-04-02T04:57:05;20.40;36.30
27823;DHT22;29019;47.630;8.262;2023-04-02T05:01:06;20.50;36.40
27823;DHT22;29019;47.630;8.262;2023-04-02T05:05:19;20.40;36.30
27823;DHT22;29019;47.630;8.262;2023-04-02T05:09:29;20.40;36.30
27823;DHT22;29019;47.630;8.262;2023-04-02T05:13:35;20.40;36.30
27823;DHT22;29019;47.630;8.262;2023-04-02T05:17:45;20.40;36.30
27823;DHT22;29019;47.630;8.262;2023-04-02T05:26:00;20.40;36.40
27823;DHT22;29019;47.630;8.262;2023-04-02T05:30:04;20.40;36.50
27823;DHT22;29019;47.630;8.262;2023-04-02T05:34:06;20.30;36.40
27823;DHT22;29019;47.630;8.262;2023-04-02T05:38:07;20.30;36.40
27823;DHT22;29019;47.630;8.262;2023-04-02T05:42:12;20.30;36.50
27823;DHT22;29019;47.630;8.262;2023-04-02T05:46:23;20.30;36.40
27823;DHT22;29019;47.630;8.262;2023-04-02T05:50:33;20.20;36.40
27823;DHT22;29019;47.630;8.262;2023-04-02T05:55:23;20.20;36.60
27823;DHT22;29019;47.630;8.262;2023-04-02T05:59:04;20.20;36.60
27823;DHT22;29019;47.630;8.262;2023-04-02T06:03:20;20.30;36.70
27823;DHT22;29019;47.630;8.262;2023-04-02T06:07:34;20.30;37.10
27823;DHT22;29019;47.630;8.262;2023-04-02T06:11:40;20.40;36.60
27823;DHT22;29019;47.630;8.262;2023-04-02T06:15:44;20.40;36.40
27823;DHT22;29019;47.630;8.262;2023-04-02T06:19:45;20.50;36.50
27823;DHT22;29019;47.630;8.262;2023-04-02T06:23:52;20.60;36.40
27823;DHT22;29019;47.630;8.262;2023-04-02T06:27:54;20.60;36.40
27823;DHT22;29019;47.630;8.262;2023-04-02T06:31:56;20.60;36.40
27823;DHT22;29019;47.630;8.262;2023-04-02T06:35:57;20.60;36.30
27823;DHT22;29019;47.630;8.262;2023-04-02T06:39:59;20.60;36.30
27823;DHT22;29019;47.630;8.262;2023-04-02T06:44:01;20.60;36.30
27823;DHT22;29019;47.630;8.262;2023-04-02T06:48:03;20.60;36.40
27823;DHT22;29019;47.630;8.262;2023-04-02T06:52:04;20.60;36.40
27823;DHT22;29019;47.630;8.262;2023-04-02T07:00:21;20.60;36.40
27823;DHT22;29019;47.630;8.262;2023-04-02T07:04:24;20.50;36.50
27823;DHT22;29019;47.630;8.262;2023-04-02T07:08:24;20.60;36.60
27823;DHT22;29019;47.630;8.262;2023-04-02T07:12:25;20.50;36.60
27823;DHT22;29019;47.630;8.262;2023-04-02T07:16:26;20.50;36.60
27823;DHT22;29019;47.630;8.262;2023-04-02T07:20:28;20.50;36.60
27823;DHT22;29019;47.630;8.262;2023-04-02T07:24:29;20.50;36.60
27823;DHT22;29019;47.630;8.262;2023-04-02T07:28:30;20.50;36.60
27823;DHT22;29019;47.630;8.262;2023-04-02T07:32:30;20.50;36.60
27823;DHT22;29019;47.630;8.262;2023-04-02T07:36:31;20.50;36.60
27823;DHT22;29019;47.630;8.262;2023-04-02T07:40:31;20.50;36.70
27823;DHT22;29019;47.630;8.262;2023-04-02T07:44:32;20.50;36.70
27823;DHT22;29019;47.630;8.262;2023-04-02T07:48:32;20.50;36.60
27823;DHT22;29019;47.630;8.262;2023-04-02T07:52:33;20.60;36.50
27823;DHT22;29019;47.630;8.262;2023-04-02T07:56:37;20.60;36.50
27823;DHT22;29019;47.630;8.262;2023-04-02T08:00:38;20.70;36.40
27823;DHT22;29019;47.630;8.262;2023-04-02T08:04:38;20.70;36.50
27823;DHT22;29019;47.630;8.262;2023-04-02T08:08:39;20.80;36.40
27823;DHT22;29019;47.630;8.262;2023-04-02T08:12:39;20.80;36.40
27823;DHT22;29019;47.630;8.262;2023-04-02T08:16:44;20.80;36.40
27823;DHT22;29019;47.630;8.262;2023-04-02T08:20:45;20.90;36.30
27823;DHT22;29019;47.630;8.262;2023-04-02T08:24:45;20.90;36.30
27823;DHT22;29019;47.630;8.262;2023-04-02T08:28:46;20.90;36.30
27823;DHT22;29019;47.630;8.262;2023-04-02T08:32:46;20.90;36.30
27823;DHT22;29019;47.630;8.262;2023-04-02T08:36:46;20.90;36.30
27823;DHT22;29019;47.630;8.262;2023-04-02T08:40:48;20.90;36.40
27823;DHT22;29019;47.630;8.262;2023-04-02T08:48:57;20.80;36.50
27823;DHT22;29019;47.630;8.262;2023-04-02T08:52:58;20.80;36.50
27823;DHT22;29019;47.630;8.262;2023-04-02T08:57:01;20.80;36.50
27823;DHT22;29019;47.630;8.262;2023-04-02T09:01:04;20.80;36.50
27823;DHT22;29019;47.630;8.262;2023-04-02T09:05:06;20.80;36.50
27823;DHT22;29019;47.630;8.262;2023-04-02T09:09:07;20.80;36.50
27823;DHT22;29019;47.630;8.262;2023-04-02T09:13:14;20.80;36.50
27823;DHT22;29019;47.630;8.262;2023-04-02T09:17:20;20.80;36.60
27823;DHT22;29019;47.630;8.262;2023-04-02T09:25:23;20.70;36.50
27823;DHT22;29019;47.630;8.262;2023-04-02T09:29:38;20.70;36.50
27823;DHT22;29019;47.630;8.262;2023-04-02T09:33:40;20.70;36.50
27823;DHT22;29019;47.630;8.262;2023-04-02T09:37:41;20.70;36.50
27823;DHT22;29019;47.630;8.262;2023-04-02T09:41:43;20.70;36.50
27823;DHT22;29019;47.630;8.262;2023-04-02T09:45:43;20.70;36.50
27823;DHT22;29019;47.630;8.262;2023-04-02T09:49:53;20.70;36.50
27823;DHT22;29019;47.630;8.262;2023-04-02T10:02:30;20.80;36.50
27823;DHT22;29019;47.630;8.262;2023-04-02T10:06:32;20.80;36.50
27823;DHT22;29019;47.630;8.262;2023-04-02T10:14:37;20.80;36.50
27823;DHT22;29019;47.630;8.262;2023-04-02T10:22:51;20.80;36.50
27823;DHT22;29019;47.630;8.262;2023-04-02T10:30:55;20.80;36.40
27823;DHT22;29019;47.630;8.262;2023-04-02T10:35:00;20.80;36.40
27823;DHT22;29019;47.630;8.262;2023-04-02T10:39:05;20.90;36.40
27823;DHT22;29019;47.630;8.262;2023-04-02T10:47:31;20.80;36.40
27823;DHT22;29019;47.630;8.262;2023-04-02T10:55:53;20.80;36.40
27823;DHT22;29019;47.630;8.262;2023-04-02T10:59:58;20.80;36.40
27823;DHT22;29019;47.630;8.262;2023-04-02T11:04:05;20.80;36.30
27823;DHT22;29019;47.630;8.262;2023-04-02T11:08:21;20.90;36.40
27823;DHT22;29019;47.630;8.262;2023-04-02T11:12:24;20.90;36.40
27823;DHT22;29019;47.630;8.262;2023-04-02T11:16:26;20.80;36.30
27823;DHT22;29019;47.630;8.262;2023-04-02T11:24:47;20.90;36.30
27823;DHT22;29019;47.630;8.262;2023-04-02T11:28:48;20.90;36.90
27823;DHT22;29019;47.630;8.262;2023-04-02T11:32:49;20.90;36.30
27823;DHT22;29019;47.630;8.262;2023-04-02T11:40:52;20.80;36.30
27823;DHT22;29019;47.630;8.262;2023-04-02T11:44:54;20.80;36.30
27823;DHT22;29019;47.630;8.262;2023-04-02T11:49:38;20.90;36.30
27823;DHT22;29019;47.630;8.262;2023-04-02T11:53:28;20.90;36.30
27823;DHT22;29019;47.630;8.262;2023-04-02T11:57:39;20.90;36.40
27823;DHT22;29019;47.630;8.262;2023-04-02T12:01:58;20.90;36.40
27823;DHT22;29019;47.630;8.262;2023-04-02T12:06:04;20.90;36.40
27823;DHT22;29019;47.630;8.262;2023-04-02T12:10:17;20.90;36.30
27823;DHT22;29019;47.630;8.262;2023-04-02T12:14:29;20.90;36.30
27823;DHT22;29019;47.630;8.262;2023-04-02T12:18:30;20.90;36.30
27823;DHT22;29019;47.630;8.262;2023-04-02T12:22:31;20.90;36.30
27823;DHT22;29019;47.630;8.262;2023-04-02T12:26:33;20.90;36.30
27823;DHT22;29019;47.630;8.262;2023-04-02T12:30:37;21.00;36.30
27823;DHT22;29019;47.630;8.262;2023-04-02T12:34:43;21.00;36.30
27823;DHT22;29019;47.630;8.262;2023-04-02T12:38:45;21.10;36.30
27823;DHT22;29019;47.630;8.262;2023-04-02T12:42:45;21.10;36.20
27823;DHT22;29019;47.630;8.262;2023-04-02T12:46:46;21.10;36.20
27823;DHT22;29019;47.630;8.262;2023-04-02T12:50:47;21.10;36.20
27823;DHT22;29019;47.630;8.262;2023-04-02T12:54:52;21.10;36.20
27823;DHT22;29019;47.630;8.262;2023-04-02T12:58:53;21.10;36.10
27823;DHT22;29019;47.630;8.262;2023-04-02T13:02:58;21.10;36.10
27823;DHT22;29019;47.630;8.262;2023-04-02T13:06:58;21.20;36.20
27823;DHT22;29019;47.630;8.262;2023-04-02T13:11:00;21.20;36.20
27823;DHT22;29019;47.630;8.262;2023-04-02T13:15:02;21.20;36.10
27823;DHT22;29019;47.630;8.262;2023-04-02T13:19:10;21.30;36.10
27823;DHT22;29019;47.630;8.262;2023-04-02T13:23:22;21.30;36.00
27823;DHT22;29019;47.630;8.262;2023-04-02T13:27:23;21.30;36.00
27823;DHT22;29019;47.630;8.262;2023-04-02T13:31:23;21.30;36.00
27823;DHT22;29019;47.630;8.262;2023-04-02T13:35:24;21.30;36.00
27823;DHT22;29019;47.630;8.262;2023-04-02T13:39:25;21.30;36.00
27823;DHT22;29019;47.630;8.262;2023-04-02T13:43:26;21.30;36.00
27823;DHT22;29019;47.630;8.262;2023-04-02T13:47:26;21.30;36.00
27823;DHT22;29019;47.630;8.262;2023-04-02T13:51:34;21.30;36.00
27823;DHT22;29019;47.630;8.262;2023-04-02T13:55:37;21.30;36.00
27823;DHT22;29019;47.630;8.262;2023-04-02T13:59:38;21.30;36.00
27823;DHT22;29019;47.630;8.262;2023-04-02T14:03:39;21.40;36.00
27823;DHT22;29019;47.630;8.262;2023-04-02T14:07:47;21.40;35.90
27823;DHT22;29019;47.630;8.262;2023-04-02T14:16:09;21.30;35.80
27823;DHT22;29019;47.630;8.262;2023-04-02T14:32:29;21.40;35.80
27823;DHT22;29019;47.630;8.262;2023-04-02T14:36:50;21.40;35.90
27823;DHT22;29019;47.630;8.262;2023-04-02T14:41:29;21.40;35.80
27823;DHT22;29019;47.630;8.262;2023-04-02T14:49:30;21.40;35.90
27823;DHT22;29019;47.630;8.262;2023-04-02T14:53:39;21.40;35.90
27823;DHT22;29019;47.630;8.262;2023-04-02T14:57:47;21.40;35.90
27823;DHT22;29019;47.630;8.262;2023-04-02T15:01:52;21.40;35.90
27823;DHT22;29019;47.630;8.262;2023-04-02T15:05:58;21.40;35.90
27823;DHT22;29019;47.630;8.262;2023-04-02T15:10:07;21.40;35.90
27823;DHT22;29019;47.630;8.262;2023-04-02T15:14:14;21.40;35.90
27823;DHT22;29019;47.630;8.262;2023-04-02T15:18:16;21.40;35.90
27823;DHT22;29019;47.630;8.262;2023-04-02T15:22:20;21.40;35.90
27823;DHT22;29019;47.630;8.262;2023-04-02T15:26:26;21.40;35.90
27823;DHT22;29019;47.630;8.262;2023-04-02T15:30:33;21.40;36.00
27823;DHT22;29019;47.630;8.262;2023-04-02T15:34:39;21.40;36.00
27823;DHT22;29019;47.630;8.262;2023-04-02T15:38:44;21.40;36.00
27823;DHT22;29019;47.630;8.262;2023-04-02T15:43:03;21.40;36.00
27823;DHT22;29019;47.630;8.262;2023-04-02T15:47:11;21.40;36.00
27823;DHT22;29019;47.630;8.262;2023-04-02T15:55:40;21.40;36.00
27823;DHT22;29019;47.630;8.262;2023-04-02T15:59:53;21.40;36.00
27823;DHT22;29019;47.630;8.262;2023-04-02T16:04:13;21.40;36.00
27823;DHT22;29019;47.630;8.262;2023-04-02T16:12:28;21.40;35.90
27823;DHT22;29019;47.630;8.262;2023-04-02T16:20:34;21.40;36.00
27823;DHT22;29019;47.630;8.262;2023-04-02T16:24:35;21.40;35.90
27823;DHT22;29019;47.630;8.262;2023-04-02T16:28:38;21.40;35.90
27823;DHT22;29019;47.630;8.262;2023-04-02T16:32:45;21.40;35.90
27823;DHT22;29019;47.630;8.262;2023-04-02T16:36:54;21.30;35.80
27823;DHT22;29019;47.630;8.262;2023-04-02T16:40:59;21.30;35.80
27823;DHT22;29019;47.630;8.262;2023-04-02T16:45:24;21.30;35.80
27823;DHT22;29019;47.630;8.262;2023-04-02T16:49:31;21.30;35.90
27823;DHT22;29019;47.630;8.262;2023-04-02T16:53:55;21.30;35.90
27823;DHT22;29019;47.630;8.262;2023-04-02T16:58:39;21.30;35.90
27823;DHT22;29019;47.630;8.262;2023-04-02T17:06:25;21.20;35.90
27823;DHT22;29019;47.630;8.262;2023-04-02T17:10:45;21.20;35.90
27823;DHT22;29019;47.630;8.262;2023-04-02T17:14:49;21.20;35.90
27823;DHT22;29019;47.630;8.262;2023-04-02T17:18:51;21.20;35.90
27823;DHT22;29019;47.630;8.262;2023-04-02T17:22:53;21.20;36.00
27823;DHT22;29019;47.630;8.262;2023-04-02T17:26:57;21.20;36.00
27823;DHT22;29019;47.630;8.262;2023-04-02T17:30:58;21.20;36.00
27823;DHT22;29019;47.630;8.262;2023-04-02T17:35:09;21.20;36.00
27823;DHT22;29019;47.630;8.262;2023-04-02T17:43:41;21.20;36.00
27823;DHT22;29019;47.630;8.262;2023-04-02T17:47:48;21.20;36.00
27823;DHT22;29019;47.630;8.262;2023-04-02T17:51:52;21.20;36.00
27823;DHT22;29019;47.630;8.262;2023-04-02T18:00:15;21.10;35.90
27823;DHT22;29019;47.630;8.262;2023-04-02T18:09:08;21.10;36.00
27823;DHT22;29019;47.630;8.262;2023-04-02T18:12:49;21.10;36.00
27823;DHT22;29019;47.630;8.262;2023-04-02T18:17:05;21.10;36.10
27823;DHT22;29019;47.630;8.262;2023-04-02T18:21:17;21.10;36.00
27823;DHT22;29019;47.630;8.262;2023-04-02T18:29:34;21.10;36.00
27823;DHT22;29019;47.630;8.262;2023-04-02T18:33:42;21.10;36.00
27823;DHT22;29019;47.630;8.262;2023-04-02T18:46:32;21.10;36.00
27823;DHT22;29019;47.630;8.262;2023-04-02T18:50:35;21.10;36.00
27823;DHT22;29019;47.630;8.262;2023-04-02T18:58:50;21.10;36.10
27823;DHT22;29019;47.630;8.262;2023-04-02T19:02:58;21.10;36.10
27823;DHT22;29019;47.630;8.262;2023-04-02T19:07:03;21.10;36.10
27823;DHT22;29019;47.630;8.262;2023-04-02T19:11:10;21.10;36.00
27823;DHT22;29019;47.630;8.262;2023-04-02T19:15:15;21.00;36.00
27823;DHT22;29019;47.630;8.262;2023-04-02T19:19:18;21.00;36.00
27823;DHT22;29019;47.630;8.262;2023-04-02T19:23:27;21.00;36.00
27823;DHT22;29019;47.630;8.262;2023-04-02T19:35:46;21.00;36.10
27823;DHT22;29019;47.630;8.262;2023-04-02T19:40:02;21.00;36.10
27823;DHT22;29019;47.630;8.262;2023-04-02T19:44:09;21.00;36.10
27823;DHT22;29019;47.630;8.262;2023-04-02T19:48:12;21.00;36.10
27823;DHT22;29019;47.630;8.262;2023-04-02T19:52:13;21.00;36.00
27823;DHT22;29019;47.630;8.262;2023-04-02T19:56:14;21.00;36.00
27823;DHT22;29019;47.630;8.262;2023-04-02T20:00:14;21.00;36.00
27823;DHT22;29019;47.630;8.262;2023-04-02T20:04:15;21.00;36.00
27823;DHT22;29019;47.630;8.262;2023-04-02T20:08:15;21.00;36.00
27823;DHT22;29019;47.630;8.262;2023-04-02T20:12:16;21.00;36.00
27823;DHT22;29019;47.630;8.262;2023-04-02T20:16:17;21.00;36.00
27823;DHT22;29019;47.630;8.262;2023-04-02T20:20:17;20.90;36.10
27823;DHT22;29019;47.630;8.262;2023-04-02T20:24:17;21.00;36.10
27823;DHT22;29019;47.630;8.262;2023-04-02T20:28:18;21.00;36.10
27823;DHT22;29019;47.630;8.262;2023-04-02T20:32:19;21.00;36.00
27823;DHT22;29019;47.630;8.262;2023-04-02T20:36:20;21.00;35.90
27823;DHT22;29019;47.630;8.262;2023-04-02T20:40:21;21.00;36.00
27823;DHT22;29019;47.630;8.262;2023-04-02T20:44:21;20.90;35.90
27823;DHT22;29019;47.630;8.262;2023-04-02T20:48:22;20.90;36.00
27823;DHT22;29019;47.630;8.262;2023-04-02T20:52:23;20.90;35.90
27823;DHT22;29019;47.630;8.262;2023-04-02T20:56:23;20.90;35.90
27823;DHT22;29019;47.630;8.262;2023-04-02T21:00:25;20.90;36.00
27823;DHT22;29019;47.630;8.262;2023-04-02T21:04:26;20.90;36.00
27823;DHT22;29019;47.630;8.262;2023-04-02T21:08:27;20.90;36.00
27823;DHT22;29019;47.630;8.262;2023-04-02T21:12:27;20.90;36.00
27823;DHT22;29019;47.630;8.262;2023-04-02T21:16:30;20.90;36.00
27823;DHT22;29019;47.630;8.262;2023-04-02T21:20:31;20.90;36.00
27823;DHT22;29019;47.630;8.262;2023-04-02T21:24:31;20.90;36.00
27823;DHT22;29019;47.630;8.262;2023-04-02T21:28:32;20.90;36.00
27823;DHT22;29019;47.630;8.262;2023-04-02T21:32:33;20.90;36.00
27823;DHT22;29019;47.630;8.262;2023-04-02T21:36:34;20.90;36.00
27823;DHT22;29019;47.630;8.262;2023-04-02T21:40:35;20.80;36.00
27823;DHT22;29019;47.630;8.262;2023-04-02T21:44:35;20.80;36.10
27823;DHT22;29019;47.630;8.262;2023-04-02T21:48:36;20.80;36.10
27823;DHT22;29019;47.630;8.262;2023-04-02T21:52:37;20.80;36.10
27823;DHT22;29019;47.630;8.262;2023-04-02T21:56:38;20.70;36.10
27823;DHT22;29019;47.630;8.262;2023-04-02T22:00:39;20.70;36.10
27823;DHT22;29019;47.630;8.262;2023-04-02T22:04:40;20.70;36.10
27823;DHT22;29019;47.630;8.262;2023-04-02T22:08:41;20.70;36.10
27823;DHT22;29019;47.630;8.262;2023-04-02T22:12:42;20.70;36.10
27823;DHT22;29019;47.630;8.262;2023-04-02T22:16:42;20.70;36.10
27823;DHT22;29019;47.630;8.262;2023-04-02T22:20:43;20.70;36.20
27823;DHT22;29019;47.630;8.262;2023-04-02T22:24:44;20.60;36.20
27823;DHT22;29019;47.630;8.262;2023-04-02T22:28:45;20.60;36.20
27823;DHT22;29019;47.630;8.262;2023-04-02T22:32:45;20.60;36.20
27823;DHT22;29019;47.630;8.262;2023-04-02T22:36:46;20.60;36.20
27823;DHT22;29019;47.630;8.262;2023-04-02T22:40:46;20.60;36.20
27823;DHT22;29019;47.630;8.262;2023-04-02T22:44:47;20.60;36.20
27823;DHT22;29019;47.630;8.262;2023-04-02T22:48:48;20.50;36.20
27823;DHT22;29019;47.630;8.262;2023-04-02T22:52:48;20.60;36.30
27823;DHT22;29019;47.630;8.262;2023-04-02T22:56:49;20.60;36.20
27823;DHT22;29019;47.630;8.262;2023-04-02T23:00:50;20.50;36.20
27823;DHT22;29019;47.630;8.262;2023-04-02T23:04:50;20.50;36.20
27823;DHT22;29019;47.630;8.262;2023-04-02T23:08:51;20.50;36.20
27823;DHT22;29019;47.630;8.262;2023-04-02T23:12:51;20.50;36.30
27823;DHT22;29019;47.630;8.262;2023-04-02T23:16:51;20.50;36.30
27823;DHT22;29019;47.630;8.262;2023-04-02T23:20:52;20.40;36.30
27823;DHT22;29019;47.630;8.262;2023-04-02T23:24:53;20.50;36.30
27823;DHT22;29019;47.630;8.262;2023-04-02T23:28:53;20.40;36.30
27823;DHT22;29019;47.630;8.262;2023-04-02T23:32:54;20.40;36.20
27823;DHT22;29019;47.630;8.262;2023-04-02T23:36:54;20.40;36.30
27823;DHT22;29019;47.630;8.262;2023-04-02T23:40:55;20.40;36.30
27823;DHT22;29019;47.630;8.262;2023-04-02T23:44:55;20.40;36.30
27823;DHT22;29019;47.630;8.262;2023-04-02T23:48:56;20.40;36.30
27823;DHT22;29019;47.630;8.262;2023-04-02T23:52:57;20.30;36.20
27823;DHT22;29019;47.630;8.262;2023-04-02T23:56:58;20.30;36.20
